createdAt,value
2018-06-16T00:01:02.269Z,25.70
2018-06-16T00:03:30.413Z,25.70
2018-06-16T00:05:58.736Z,25.60
2018-06-16T00:08:26.897Z,25.50
2018-06-16T00:13:23.899Z,25.30
2018-06-16T00:15:52.277Z,25.20
2018-06-16T00:18:20.424Z,25.20
2018-06-16T00:20:48.603Z,25.20
2018-06-16T00:23:16.729Z,25.30
2018-06-16T00:25:44.896Z,25.40
2018-06-16T00:28:13.024Z,25.40
2018-06-16T00:30:41.182Z,25.40
2018-06-16T00:33:09.307Z,25.40
2018-06-16T00:35:37.451Z,25.30
2018-06-16T00:38:06.598Z,25.20
2018-06-16T00:40:34.752Z,25.00
2018-06-16T00:43:02.884Z,25.00
2018-06-16T00:45:31.048Z,24.90
2018-06-16T00:47:59.203Z,24.80
2018-06-16T00:50:27.429Z,24.90
2018-06-16T00:52:56.438Z,24.90
2018-06-16T00:55:24.578Z,24.90
2018-06-16T00:57:52.712Z,24.90
2018-06-16T01:00:21.172Z,24.90
2018-06-16T01:02:49.576Z,24.90
2018-06-16T01:05:17.720Z,24.90
2018-06-16T01:07:45.852Z,24.80
2018-06-16T01:10:14.020Z,24.80
2018-06-16T01:12:42.156Z,24.70
2018-06-16T01:15:10.312Z,24.50
2018-06-16T01:17:38.456Z,24.40
2018-06-16T01:20:06.612Z,24.50
2018-06-16T01:22:34.756Z,24.50
2018-06-16T01:25:02.914Z,24.40
2018-06-16T01:27:31.048Z,24.30
2018-06-16T01:29:59.188Z,24.30
2018-06-16T01:32:27.368Z,24.30
2018-06-16T01:34:56.421Z,24.20
2018-06-16T01:37:24.548Z,24.10
2018-06-16T01:39:52.707Z,24.00
2018-06-16T01:42:20.855Z,24.00
2018-06-16T01:44:48.954Z,23.90
2018-06-16T01:47:17.079Z,23.90
2018-06-16T01:49:45.167Z,23.90
2018-06-16T01:52:13.286Z,23.90
2018-06-16T01:54:41.387Z,23.80
2018-06-16T01:57:09.484Z,23.80
2018-06-16T01:59:37.617Z,23.70
2018-06-16T02:02:06.053Z,23.70
2018-06-16T02:04:34.148Z,23.60
2018-06-16T02:07:02.321Z,23.80
2018-06-16T02:09:30.427Z,23.90
2018-06-16T02:11:58.540Z,23.80
2018-06-16T02:14:26.713Z,23.80
2018-06-16T02:16:54.799Z,23.90
2018-06-16T02:19:22.896Z,24.00
2018-06-16T02:21:51.011Z,24.20
2018-06-16T02:24:19.123Z,24.20
2018-06-16T02:26:47.877Z,24.20
2018-06-16T02:29:15.991Z,24.10
2018-06-16T02:31:44.096Z,24.20
2018-06-16T02:34:12.208Z,24.10
2018-06-16T02:36:40.308Z,24.20
2018-06-16T02:39:09.329Z,24.20
2018-06-16T02:41:37.432Z,24.20
2018-06-16T02:44:05.629Z,24.10
2018-06-16T02:46:33.765Z,24.10
2018-06-16T02:49:01.980Z,24.20
2018-06-16T02:51:30.184Z,24.20
2018-06-16T02:53:58.300Z,24.10
2018-06-16T02:56:26.945Z,24.20
2018-06-16T02:58:55.069Z,24.20
2018-06-16T03:01:23.189Z,24.20
2018-06-16T03:03:51.312Z,24.10
2018-06-16T03:06:19.412Z,24.10
2018-06-16T03:08:47.539Z,24.10
2018-06-16T03:11:15.642Z,23.90
2018-06-16T03:13:43.774Z,24.10
2018-06-16T03:16:11.869Z,24.00
2018-06-16T03:18:40.000Z,23.60
2018-06-16T03:21:08.140Z,23.60
2018-06-16T03:23:36.414Z,23.50
2018-06-16T03:26:04.467Z,23.50
2018-06-16T03:28:32.663Z,23.60
2018-06-16T03:31:00.775Z,23.50
2018-06-16T03:33:28.869Z,23.40
2018-06-16T03:35:57.315Z,23.10
2018-06-16T03:38:25.440Z,22.80
2018-06-16T03:40:53.601Z,22.80
2018-06-16T03:43:21.728Z,22.70
2018-06-16T03:45:49.852Z,22.70
2018-06-16T03:48:17.953Z,22.70
2018-06-16T03:50:46.092Z,22.70
2018-06-16T03:53:14.192Z,22.60
2018-06-16T03:55:42.311Z,22.50
2018-06-16T03:58:10.436Z,22.80
2018-06-16T04:00:38.553Z,22.70
2018-06-16T04:03:06.847Z,22.60
2018-06-16T04:05:34.943Z,22.60
2018-06-16T04:08:03.063Z,22.80
2018-06-16T04:10:31.164Z,22.90
2018-06-16T04:12:59.263Z,23.10
2018-06-16T04:15:27.403Z,23.00
2018-06-16T04:17:55.482Z,23.30
2018-06-16T04:20:23.601Z,23.40
2018-06-16T04:22:51.704Z,23.30
2018-06-16T04:25:19.812Z,23.50
2018-06-16T04:27:47.915Z,23.70
2018-06-16T04:30:16.015Z,23.60
2018-06-16T04:32:44.206Z,23.70
2018-06-16T04:35:12.296Z,23.50
2018-06-16T04:37:40.411Z,23.60
2018-06-16T04:40:09.079Z,23.70
2018-06-16T04:45:05.413Z,24.00
2018-06-16T04:47:33.510Z,24.10
2018-06-16T04:50:01.608Z,24.20
2018-06-16T04:52:29.713Z,24.20
2018-06-16T04:54:57.823Z,24.20
2018-06-16T04:57:25.949Z,24.10
2018-06-16T04:59:54.048Z,24.10
2018-06-16T05:02:22.175Z,23.90
2018-06-16T05:04:50.295Z,23.90
2018-06-16T05:07:18.400Z,24.20
2018-06-16T05:09:46.498Z,24.10
2018-06-16T05:12:14.626Z,24.50
2018-06-16T05:14:42.708Z,24.50
2018-06-16T05:17:10.839Z,24.40
2018-06-16T05:19:38.967Z,24.50
2018-06-16T05:22:07.109Z,24.70
2018-06-16T05:24:35.464Z,24.50
2018-06-16T05:27:03.555Z,24.50
2018-06-16T05:29:31.677Z,24.80
2018-06-16T05:31:59.771Z,24.90
2018-06-16T05:34:27.914Z,24.90
2018-06-16T05:36:56.785Z,24.90
2018-06-16T05:39:24.891Z,25.00
2018-06-16T05:41:52.987Z,24.90
2018-06-16T05:44:21.135Z,24.70
2018-06-16T05:46:49.355Z,24.60
2018-06-16T05:49:17.507Z,24.80
2018-06-16T05:51:45.643Z,25.00
2018-06-16T05:54:13.796Z,25.00
2018-06-16T05:56:41.939Z,24.90
2018-06-16T05:59:10.079Z,25.00
2018-06-16T06:01:38.216Z,25.20
2018-06-16T06:04:06.364Z,25.30
2018-06-16T06:06:34.511Z,25.40
2018-06-16T06:09:02.708Z,25.60
2018-06-16T06:11:30.821Z,25.70
2018-06-16T06:13:58.984Z,25.70
2018-06-16T06:16:27.124Z,25.30
2018-06-16T06:18:55.266Z,25.60
2018-06-16T06:21:23.435Z,25.50
2018-06-16T06:23:51.596Z,25.90
2018-06-16T06:26:19.744Z,25.90
2018-06-16T06:28:47.905Z,25.80
2018-06-16T06:31:16.076Z,26.00
2018-06-16T06:33:44.242Z,26.10
2018-06-16T06:36:12.403Z,26.40
2018-06-16T06:38:40.552Z,26.50
2018-06-16T06:41:08.953Z,26.60
2018-06-16T06:43:37.140Z,27.00
2018-06-16T06:46:05.324Z,27.60
2018-06-16T06:48:33.423Z,28.50
2018-06-16T06:51:01.542Z,29.20
2018-06-16T06:53:29.635Z,29.90
2018-06-16T06:55:57.782Z,30.30
2018-06-16T06:58:32.619Z,30.30
2018-06-16T07:01:00.740Z,30.20
2018-06-16T07:03:28.892Z,29.90
2018-06-16T07:05:56.994Z,30.00
2018-06-16T07:08:25.088Z,29.50
2018-06-16T07:10:53.302Z,29.20
2018-06-16T07:13:21.364Z,29.00
2018-06-16T07:15:49.474Z,29.20
2018-06-16T07:18:17.584Z,29.20
2018-06-16T07:20:45.676Z,29.80
2018-06-16T07:23:13.812Z,30.20
2018-06-16T07:28:09.811Z,29.90
2018-06-16T07:30:37.915Z,29.70
2018-06-16T07:33:06.040Z,29.70
2018-06-16T07:35:34.126Z,30.30
2018-06-16T07:38:02.232Z,31.00
2018-06-16T07:40:30.336Z,32.40
2018-06-16T07:42:58.443Z,33.60
2018-06-16T07:45:26.548Z,33.30
2018-06-16T07:47:54.664Z,32.80
2018-06-16T07:50:22.775Z,32.10
2018-06-16T07:52:50.936Z,32.40
2018-06-16T07:55:19.068Z,32.50
2018-06-16T07:57:47.177Z,32.20
2018-06-16T08:00:15.368Z,32.70
2018-06-16T08:02:43.459Z,33.10
2018-06-16T08:05:11.580Z,33.80
2018-06-16T08:07:39.766Z,34.40
2018-06-16T08:10:07.975Z,35.10
2018-06-16T08:12:36.093Z,35.00
2018-06-16T08:15:04.213Z,34.70
2018-06-16T08:17:32.325Z,33.80
2018-06-16T08:20:00.471Z,33.60
2018-06-16T08:22:28.577Z,34.10
2018-06-16T08:27:24.993Z,34.50
2018-06-16T08:29:54.012Z,35.00
2018-06-16T08:32:22.116Z,35.60
2018-06-16T08:34:50.446Z,35.60
2018-06-16T08:37:18.503Z,35.50
2018-06-16T08:39:46.628Z,34.50
2018-06-16T08:42:14.739Z,33.60
2018-06-16T08:44:42.898Z,33.30
2018-06-16T08:47:11.152Z,32.90
2018-06-16T08:52:07.235Z,33.40
2018-06-16T08:54:35.403Z,34.40
2018-06-16T08:57:03.540Z,34.80
2018-06-16T08:59:31.667Z,35.10
2018-06-16T09:01:59.811Z,34.60
2018-06-16T09:04:27.996Z,33.60
2018-06-16T09:06:57.024Z,33.20
2018-06-16T09:09:25.123Z,32.20
2018-06-16T09:11:53.236Z,32.40
2018-06-16T09:14:21.992Z,32.50
2018-06-16T09:16:50.157Z,33.00
2018-06-16T09:35:33.053Z,26.30
2018-06-16T09:38:01.216Z,27.20
2018-06-16T09:40:29.473Z,28.20
2018-06-16T09:42:57.584Z,28.70
2018-06-16T09:45:25.704Z,29.40
2018-06-16T09:47:53.807Z,30.10
2018-06-16T09:50:21.953Z,30.50
2018-06-16T09:52:50.140Z,30.70
2018-06-16T09:55:18.323Z,30.90
2018-06-16T09:57:46.420Z,32.10
2018-06-16T10:00:20.044Z,33.30
2018-06-16T10:02:48.172Z,34.00
2018-06-16T10:05:16.273Z,34.40
2018-06-16T10:07:44.369Z,34.40
2018-06-16T10:10:12.906Z,34.20
2018-06-16T10:12:41.021Z,34.60
2018-06-16T10:15:09.986Z,35.00
2018-06-16T10:17:38.124Z,35.00
2018-06-16T10:20:06.410Z,34.60
2018-06-16T10:22:34.505Z,34.80
2018-06-16T10:25:02.591Z,35.10
2018-06-16T10:27:30.711Z,35.00
2018-06-16T10:29:58.818Z,35.10
2018-06-16T10:32:26.929Z,35.50
2018-06-16T10:34:55.040Z,36.20
2018-06-16T10:37:23.166Z,36.00
2018-06-16T10:39:51.279Z,36.10
2018-06-16T10:42:19.390Z,36.30
2018-06-16T10:44:47.552Z,36.70
2018-06-16T10:47:16.413Z,36.20
2018-06-16T10:49:44.573Z,35.80
2018-06-16T10:52:12.728Z,36.10
2018-06-16T10:54:40.882Z,35.40
2018-06-16T10:57:09.025Z,35.50
2018-06-16T10:59:37.278Z,35.90
2018-06-16T11:02:05.481Z,36.00
2018-06-16T11:04:33.804Z,36.30
2018-06-16T11:07:01.932Z,36.70
2018-06-16T11:09:30.101Z,36.70
2018-06-16T11:11:58.235Z,36.40
2018-06-16T11:14:26.770Z,36.00
2018-06-16T11:16:54.887Z,35.50
2018-06-16T11:19:23.031Z,34.90
2018-06-16T11:21:51.762Z,34.90
2018-06-16T11:24:19.959Z,35.50
2018-06-16T11:26:48.143Z,36.10
2018-06-16T11:29:16.271Z,36.10
2018-06-16T11:31:44.424Z,36.30
2018-06-16T11:34:12.572Z,37.10
2018-06-16T11:36:40.776Z,37.70
2018-06-16T11:39:10.498Z,37.60
2018-06-16T11:41:38.708Z,37.50
2018-06-16T11:44:06.893Z,37.00
2018-06-16T11:46:35.032Z,36.80
2018-06-16T11:49:03.156Z,36.90
2018-06-16T11:51:31.432Z,36.70
2018-06-16T11:53:59.542Z,36.50
2018-06-16T11:56:27.679Z,36.00
2018-06-16T11:58:55.833Z,35.30
2018-06-16T12:01:23.939Z,34.70
2018-06-16T12:03:52.031Z,34.50
2018-06-16T12:06:20.155Z,34.40
2018-06-16T12:08:48.264Z,34.50
2018-06-16T12:11:16.402Z,34.30
2018-06-16T12:16:12.606Z,34.00
2018-06-16T12:18:40.724Z,33.70
2018-06-16T12:21:09.382Z,32.50
2018-06-16T12:23:37.517Z,31.70
2018-06-16T12:26:05.696Z,31.80
2018-06-16T12:28:33.816Z,31.80
2018-06-16T12:31:01.940Z,31.80
2018-06-16T12:33:30.344Z,31.90
2018-06-16T12:35:58.448Z,32.20
2018-06-16T12:38:26.567Z,32.60
2018-06-16T12:40:54.744Z,33.90
2018-06-16T12:43:22.881Z,34.30
2018-06-16T12:45:50.968Z,34.60
2018-06-16T12:48:19.099Z,34.40
2018-06-16T12:50:47.233Z,34.40
2018-06-16T12:53:15.919Z,34.30
2018-06-16T12:55:44.549Z,34.80
2018-06-16T12:58:12.679Z,36.00
2018-06-16T13:00:40.779Z,36.60
2018-06-16T13:03:08.896Z,37.60
2018-06-16T13:05:36.996Z,36.50
2018-06-16T13:08:05.114Z,35.70
2018-06-16T13:10:33.265Z,35.60
2018-06-16T13:13:01.368Z,35.60
2018-06-16T13:15:29.485Z,36.10
2018-06-16T13:17:57.702Z,35.90
2018-06-16T13:22:53.777Z,37.00
2018-06-16T13:25:21.984Z,36.90
2018-06-16T13:27:50.083Z,36.70
2018-06-16T13:30:18.175Z,35.90
2018-06-16T13:35:14.228Z,35.30
2018-06-16T13:37:42.993Z,35.90
2018-06-16T13:40:11.120Z,35.80
2018-06-16T13:42:39.244Z,35.50
2018-06-16T13:45:07.396Z,35.60
2018-06-16T13:47:35.516Z,35.90
2018-06-16T13:50:03.673Z,36.10
2018-06-16T13:52:31.810Z,36.90
2018-06-16T13:54:59.995Z,38.00
2018-06-16T13:57:28.214Z,38.50
2018-06-16T13:59:56.328Z,38.60
2018-06-16T14:02:24.462Z,38.60
2018-06-16T14:04:52.609Z,38.80
2018-06-16T14:07:20.870Z,38.80
2018-06-16T14:09:49.000Z,38.90
2018-06-16T14:12:17.123Z,38.60
2018-06-16T14:14:45.280Z,38.50
2018-06-16T14:17:13.443Z,38.30
2018-06-16T14:19:41.683Z,38.30
2018-06-16T14:22:09.819Z,38.00
2018-06-16T14:24:37.972Z,37.60
2018-06-16T14:27:06.191Z,37.00
2018-06-16T14:29:34.362Z,36.30
2018-06-16T14:32:02.525Z,35.70
2018-06-16T14:34:30.696Z,35.00
2018-06-16T14:36:58.824Z,34.50
2018-06-16T14:39:27.539Z,34.20
2018-06-16T14:41:55.683Z,33.70
2018-06-16T14:44:24.519Z,33.60
2018-06-16T14:46:52.624Z,33.40
2018-06-16T14:49:20.736Z,33.30
2018-06-16T14:51:48.851Z,33.30
2018-06-16T14:54:17.534Z,32.80
2018-06-16T14:56:45.636Z,32.70
2018-06-16T14:59:13.752Z,32.60
2018-06-16T15:01:41.848Z,32.30
2018-06-16T15:04:09.959Z,32.40
2018-06-16T15:06:38.068Z,32.40
2018-06-16T15:09:08.526Z,32.90
2018-06-16T15:11:36.695Z,32.80
2018-06-16T15:14:04.850Z,32.90
2018-06-16T15:16:32.994Z,33.10
2018-06-16T15:19:01.092Z,32.50
2018-06-16T15:21:29.205Z,32.60
2018-06-16T15:23:57.983Z,32.90
2018-06-16T15:26:26.202Z,33.20
2018-06-16T15:28:54.398Z,33.60
2018-06-16T15:31:22.513Z,33.20
2018-06-16T15:33:51.084Z,33.10
2018-06-16T15:38:47.061Z,32.50
2018-06-16T15:41:15.551Z,32.50
2018-06-16T15:43:43.595Z,32.40
2018-06-16T15:48:40.332Z,32.10
2018-06-16T15:51:08.515Z,32.10
2018-06-16T15:53:36.683Z,32.20
2018-06-16T15:56:04.943Z,32.40
2018-06-16T15:58:33.119Z,32.60
2018-06-16T16:01:01.252Z,32.60
2018-06-16T16:03:29.399Z,32.80
2018-06-16T16:05:58.076Z,32.80
2018-06-16T16:08:26.201Z,32.50
2018-06-16T16:10:54.365Z,32.40
2018-06-16T16:13:22.493Z,32.40
2018-06-16T16:15:50.669Z,31.60
2018-06-16T16:18:18.836Z,31.90
2018-06-16T16:20:46.984Z,31.90
2018-06-16T16:23:15.194Z,31.80
2018-06-16T16:25:43.331Z,31.50
2018-06-16T16:28:11.467Z,31.50
2018-06-16T16:33:07.533Z,31.70
2018-06-16T16:35:35.716Z,31.80
2018-06-16T16:38:03.854Z,32.00
2018-06-16T16:42:59.983Z,31.80
2018-06-16T16:45:28.172Z,31.80
2018-06-16T16:47:56.274Z,32.00
2018-06-16T16:50:24.498Z,32.10
2018-06-16T16:52:52.658Z,31.90
2018-06-16T16:55:20.771Z,31.80
2018-06-16T16:57:48.879Z,31.90
2018-06-16T17:00:16.991Z,31.90
2018-06-16T17:02:45.103Z,32.10
2018-06-16T17:05:13.234Z,32.00
2018-06-16T17:07:41.397Z,31.90
2018-06-16T17:10:09.515Z,31.30
2018-06-16T17:15:05.524Z,31.40
2018-06-16T17:17:33.658Z,31.00
2018-06-16T17:20:01.762Z,30.80
2018-06-16T17:22:29.915Z,30.60
2018-06-16T17:24:58.147Z,30.30
2018-06-16T17:27:26.232Z,30.50
2018-06-16T17:29:54.349Z,30.00
2018-06-16T17:32:22.523Z,30.00
2018-06-16T17:34:50.652Z,29.90
2018-06-16T17:37:18.760Z,29.90
2018-06-16T17:39:46.852Z,29.50
2018-06-16T17:42:14.975Z,28.60
2018-06-16T17:47:11.032Z,27.20
2018-06-16T17:49:39.208Z,26.80
2018-06-16T17:52:07.500Z,27.20
2018-06-16T17:54:35.624Z,26.60
2018-06-16T17:57:03.836Z,26.80
2018-06-16T17:59:31.974Z,26.70
2018-06-16T18:02:00.120Z,25.80
2018-06-16T18:04:28.511Z,25.80
2018-06-16T18:06:56.643Z,25.70
2018-06-16T18:09:24.787Z,25.50
2018-06-16T18:11:52.934Z,25.80
2018-06-16T18:14:21.157Z,26.10
2018-06-16T18:16:49.313Z,26.10
2018-06-16T18:19:17.491Z,26.00
2018-06-16T18:21:45.635Z,25.60
2018-06-16T18:24:13.788Z,25.40
2018-06-16T18:26:42.028Z,25.60
2018-06-16T18:29:10.180Z,25.50
2018-06-16T18:31:38.355Z,25.70
2018-06-16T18:34:06.518Z,25.60
2018-06-16T18:39:02.695Z,26.00
2018-06-16T18:41:30.804Z,25.90
2018-06-16T18:43:58.949Z,26.10
2018-06-16T18:46:27.043Z,26.10
2018-06-16T18:48:55.139Z,26.00
2018-06-16T18:51:23.240Z,26.00
2018-06-16T18:53:51.352Z,26.20
2018-06-16T18:56:19.433Z,26.20
2018-06-16T18:58:47.516Z,26.10
2018-06-16T19:01:15.587Z,25.90
2018-06-16T19:03:43.681Z,26.00
2018-06-16T19:06:11.764Z,26.10
2018-06-16T19:08:39.873Z,26.20
2018-06-16T19:11:07.971Z,26.30
2018-06-16T19:13:36.081Z,26.00
2018-06-16T19:16:04.179Z,26.20
2018-06-16T19:18:32.288Z,26.20
2018-06-16T19:21:00.408Z,26.30
2018-06-16T19:23:28.518Z,26.50
2018-06-16T19:25:56.611Z,26.30
2018-06-16T19:28:24.708Z,26.10
2018-06-16T19:30:52.857Z,26.20
2018-06-16T19:33:20.942Z,25.80
2018-06-16T19:35:49.036Z,25.60
2018-06-16T19:38:17.152Z,25.30
2018-06-16T19:40:45.264Z,25.30
2018-06-16T19:43:13.458Z,25.40
2018-06-16T19:45:41.584Z,25.50
2018-06-16T19:48:09.732Z,25.10
2018-06-16T19:50:37.871Z,25.20
2018-06-16T19:53:06.016Z,25.10
2018-06-16T19:55:34.163Z,25.10
2018-06-16T19:58:02.293Z,25.00
2018-06-16T20:00:30.424Z,24.70
2018-06-16T20:02:58.545Z,24.50
2018-06-16T20:05:26.692Z,24.50
2018-06-16T20:07:54.893Z,24.60
2018-06-16T20:10:23.025Z,24.80
2018-06-16T20:12:51.148Z,24.90
2018-06-16T20:15:19.302Z,24.90
2018-06-16T20:17:47.443Z,25.00
2018-06-16T20:20:15.610Z,24.90
2018-06-16T20:22:43.791Z,24.80
2018-06-16T20:25:11.917Z,24.80
2018-06-16T20:27:40.065Z,24.80
2018-06-16T20:30:08.206Z,25.00
2018-06-16T20:32:36.431Z,24.90
2018-06-16T20:35:04.568Z,24.80
2018-06-16T20:37:32.748Z,24.50
2018-06-16T20:40:00.853Z,24.50
2018-06-16T20:42:28.996Z,24.40
2018-06-16T20:44:57.743Z,24.50
2018-06-16T20:47:25.877Z,24.40
2018-06-16T20:49:54.012Z,24.00
2018-06-16T20:52:22.103Z,23.80
2018-06-16T20:54:50.204Z,23.90
2018-06-16T20:59:46.204Z,24.10
2018-06-16T21:02:14.356Z,24.00
2018-06-16T21:04:42.449Z,23.90
2018-06-16T21:07:10.547Z,23.90
2018-06-16T21:09:38.641Z,24.00
2018-06-16T21:12:06.764Z,23.80
2018-06-16T21:14:34.940Z,23.90
2018-06-16T21:17:03.045Z,23.70
2018-06-16T21:19:31.183Z,23.50
2018-06-16T21:21:59.298Z,23.40
2018-06-16T21:24:27.419Z,23.60
2018-06-16T21:26:55.529Z,23.60
2018-06-16T21:29:23.635Z,23.80
2018-06-16T21:31:51.744Z,23.90
2018-06-16T21:34:19.866Z,23.90
2018-06-16T21:36:47.968Z,23.60
2018-06-16T21:39:17.136Z,23.60
2018-06-16T21:41:45.257Z,23.60
2018-06-16T21:44:13.387Z,23.60
2018-06-16T21:46:41.497Z,23.60
2018-06-16T21:49:09.615Z,23.60
2018-06-16T21:51:37.710Z,23.50
2018-06-16T21:56:33.803Z,23.50
2018-06-16T21:59:01.900Z,23.50
2018-06-16T22:01:32.346Z,23.80
2018-06-16T22:04:00.633Z,23.90
2018-06-16T22:06:28.761Z,23.90
2018-06-16T22:08:56.892Z,23.80
2018-06-16T22:11:25.017Z,23.80
2018-06-16T22:13:53.170Z,23.80
2018-06-16T22:16:21.328Z,23.80
2018-06-16T22:18:49.538Z,23.70
2018-06-16T22:21:17.636Z,23.60
2018-06-16T22:23:45.812Z,23.60
2018-06-16T22:26:14.558Z,23.50
2018-06-16T22:28:42.657Z,23.50
2018-06-16T22:31:11.300Z,23.30
2018-06-16T22:33:39.428Z,23.40
2018-06-16T22:36:07.521Z,23.40
2018-06-16T22:38:35.632Z,23.20
2018-06-16T22:41:03.739Z,23.20
2018-06-16T22:43:31.856Z,23.20
2018-06-16T22:45:59.966Z,23.20
2018-06-16T22:48:28.052Z,23.20
2018-06-16T22:50:56.203Z,23.20
2018-06-16T22:53:24.312Z,23.20
2018-06-16T22:55:52.411Z,23.20
2018-06-16T22:58:20.524Z,23.20
2018-06-16T23:00:48.706Z,23.00
2018-06-16T23:03:16.965Z,22.90
2018-06-16T23:05:44.949Z,22.70
2018-06-16T23:08:13.064Z,22.60
2018-06-16T23:10:41.172Z,22.70
2018-06-16T23:13:09.276Z,22.70
2018-06-16T23:15:37.383Z,22.80
2018-06-16T23:20:33.390Z,22.70
2018-06-16T23:23:01.478Z,22.80
2018-06-16T23:25:29.572Z,22.80
2018-06-16T23:30:26.555Z,22.80
2018-06-16T23:32:54.862Z,22.90
2018-06-16T23:35:22.947Z,23.00
2018-06-16T23:37:51.141Z,23.00
2018-06-16T23:40:19.259Z,23.00
2018-06-16T23:42:47.408Z,23.10
2018-06-16T23:45:15.503Z,23.10
2018-06-16T23:50:11.589Z,23.20
2018-06-16T23:52:39.700Z,23.10
2018-06-16T23:55:07.791Z,23.20
2018-06-16T23:57:35.888Z,23.10
